sensor_id;sensor_type;location;lat;lon;timestamp;pressure;altitude;pressure_sealevel;temperature;humidity
7584;BME280;3833;41.764;26.204;2022-11-28T11:47:42;101229.19;;;7.09;100.00
7584;BME280;3833;41.764;26.204;2022-11-28T11:50:17;101222.44;;;6.96;100.00
7584;BME280;3833;41.764;26.204;2022-11-28T11:52:59;101199.31;;;6.74;100.00
7584;BME280;3833;41.764;26.204;2022-11-28T11:55:27;101215.75;;;6.77;100.00
7584;BME280;3833;41.764;26.204;2022-11-28T11:57:57;101200.38;;;6.59;100.00
7584;BME280;3833;41.764;26.204;2022-11-28T12:00:29;101214.09;;;6.69;100.00
7584;BME280;3833;41.764;26.204;2022-11-28T12:03:03;101206.22;;;6.75;100.00
7584;BME280;3833;41.764;26.204;2022-11-28T12:05:42;101212.28;;;6.78;100.00
7584;BME280;3833;41.764;26.204;2022-11-28T12:08:12;101201.94;;;6.72;100.00
7584;BME280;3833;41.764;26.204;2022-11-28T12:10:48;101209.78;;;6.68;100.00
7584;BME280;3833;41.764;26.204;2022-11-28T12:13:19;101209.78;;;6.68;100.00
7584;BME280;3833;41.764;26.204;2022-11-28T12:15:52;101209.78;;;6.68;100.00
7584;BME280;3833;41.764;26.204;2022-11-28T12:18:29;101200.28;;;6.65;100.00
7584;BME280;3833;41.764;26.204;2022-11-28T12:21:11;101199.41;;;6.66;100.00
7584;BME280;3833;41.764;26.204;2022-11-28T12:23:51;101196.69;;;6.77;100.00
7584;BME280;3833;41.764;26.204;2022-11-28T12:26:26;101212.19;;;6.84;100.00
7584;BME280;3833;41.764;26.204;2022-11-28T12:29:09;101204.50;;;6.74;100.00
7584;BME280;3833;41.764;26.204;2022-11-28T12:31:46;101210.59;;;6.74;100.00
7584;BME280;3833;41.764;26.204;2022-11-28T12:34:25;101206.97;;;6.87;100.00
7584;BME280;3833;41.764;26.204;2022-11-28T12:37:05;101218.97;;;6.97;100.00
7584;BME280;3833;41.764;26.204;2022-11-28T12:39:46;101218.97;;;6.97;100.00
7584;BME280;3833;41.764;26.204;2022-11-28T12:42:38;101218.97;;;6.97;100.00
7584;BME280;3833;41.764;26.204;2022-11-28T12:45:28;101218.97;;;6.97;100.00
7584;BME280;3833;41.764;26.204;2022-11-28T12:48:11;101218.97;;;6.97;100.00
7584;BME280;3833;41.764;26.204;2022-11-28T12:50:46;101218.97;;;6.97;100.00
7584;BME280;3833;41.764;26.204;2022-11-28T12:53:38;101218.97;;;6.97;100.00
7584;BME280;3833;41.764;26.204;2022-11-28T12:56:28;101218.97;;;6.97;100.00
7584;BME280;3833;41.764;26.204;2022-11-28T12:59:02;101218.97;;;6.97;100.00
7584;BME280;3833;41.764;26.204;2022-11-28T13:01:43;101218.97;;;6.97;100.00
7584;BME280;3833;41.764;26.204;2022-11-28T13:04:24;101218.97;;;6.97;100.00
7584;BME280;3833;41.764;26.204;2022-11-28T13:07:01;101218.97;;;6.97;100.00
7584;BME280;3833;41.764;26.204;2022-11-28T13:09:33;101218.97;;;6.97;100.00
7584;BME280;3833;41.764;26.204;2022-11-28T13:12:17;101218.97;;;6.97;100.00
7584;BME280;3833;41.764;26.204;2022-11-28T13:14:50;101218.97;;;6.97;100.00
7584;BME280;3833;41.764;26.204;2022-11-28T13:17:34;61822.16;;;-138.97;nan
7584;BME280;3833;41.764;26.204;2022-11-28T13:20:14;61822.16;;;-138.97;100.00
7584;BME280;3833;41.764;26.204;2022-11-28T13:22:56;61822.16;;;-138.97;100.00
7584;BME280;3833;41.764;26.204;2022-11-28T13:25:28;61822.16;;;-138.97;100.00
7584;BME280;3833;41.764;26.204;2022-11-28T13:28:03;101218.97;;;6.97;100.00
7584;BME280;3833;41.764;26.204;2022-11-28T13:30:36;61822.16;;;-138.97;100.00
7584;BME280;3833;41.764;26.204;2022-11-28T13:33:18;61822.16;;;-138.97;100.00
7584;BME280;3833;41.764;26.204;2022-11-28T13:35:47;61822.16;;;-138.97;100.00
7584;BME280;3833;41.764;26.204;2022-11-28T13:38:18;61822.16;;;-138.97;100.00
7584;BME280;3833;41.764;26.204;2022-11-28T13:40:50;61822.16;;;-138.97;100.00
7584;BME280;3833;41.764;26.204;2022-11-28T13:43:26;61822.16;;;-138.97;100.00
7584;BME280;3833;41.764;26.204;2022-11-28T13:45:59;61822.16;;;-138.97;100.00
7584;BME280;3833;41.764;26.204;2022-11-28T13:48:54;61822.16;;;-138.97;100.00
7584;BME280;3833;41.764;26.204;2022-11-28T13:51:24;61822.16;;;-138.97;100.00
7584;BME280;3833;41.764;26.204;2022-11-28T13:57:05;61822.16;;;-138.97;100.00
7584;BME280;3833;41.764;26.204;2022-11-28T13:59:36;61822.16;;;-138.97;100.00
7584;BME280;3833;41.764;26.204;2022-11-28T14:02:17;61822.16;;;-138.97;100.00
7584;BME280;3833;41.764;26.204;2022-11-28T14:04:46;61822.16;;;-138.97;100.00
7584;BME280;3833;41.764;26.204;2022-11-28T14:07:27;61822.16;;;-138.97;100.00
7584;BME280;3833;41.764;26.204;2022-11-28T14:10:10;61822.16;;;-138.97;100.00
7584;BME280;3833;41.764;26.204;2022-11-28T14:12:54;61822.16;;;-138.97;100.00
7584;BME280;3833;41.764;26.204;2022-11-28T14:15:31;61822.16;;;-138.97;100.00
7584;BME280;3833;41.764;26.204;2022-11-28T14:18:14;61822.16;;;-138.97;100.00
7584;BME280;3833;41.764;26.204;2022-11-28T14:20:50;61822.16;;;-138.97;100.00
7584;BME280;3833;41.764;26.204;2022-11-28T14:23:27;61822.16;;;-138.97;100.00
7584;BME280;3833;41.764;26.204;2022-11-28T14:25:55;61822.16;;;-138.97;100.00
7584;BME280;3833;41.764;26.204;2022-11-28T14:28:25;61822.16;;;-138.97;100.00
7584;BME280;3833;41.764;26.204;2022-11-28T14:31:01;61822.16;;;-138.97;100.00
7584;BME280;3833;41.764;26.204;2022-11-28T14:33:34;61822.16;;;-138.97;100.00
7584;BME280;3833;41.764;26.204;2022-11-28T14:36:28;61822.16;;;-138.97;100.00
7584;BME280;3833;41.764;26.204;2022-11-28T14:39:09;61822.16;;;-138.97;100.00
7584;BME280;3833;41.764;26.204;2022-11-28T14:44:47;61822.16;;;-138.97;100.00
7584;BME280;3833;41.764;26.204;2022-11-28T14:47:16;61822.16;;;-138.97;100.00
7584;BME280;3833;41.764;26.204;2022-11-28T14:49:43;61822.16;;;-138.97;100.00
7584;BME280;3833;41.764;26.204;2022-11-28T14:52:28;61822.16;;;-138.97;100.00
7584;BME280;3833;41.764;26.204;2022-11-28T14:54:56;61822.16;;;-138.97;100.00
7584;BME280;3833;41.764;26.204;2022-11-28T14:57:25;61822.16;;;-138.97;100.00
7584;BME280;3833;41.764;26.204;2022-11-28T14:59:56;61822.16;;;-138.97;100.00
7584;BME280;3833;41.764;26.204;2022-11-28T15:02:49;61822.16;;;-138.97;100.00
7584;BME280;3833;41.764;26.204;2022-11-28T15:05:29;61822.16;;;-138.97;100.00
7584;BME280;3833;41.764;26.204;2022-11-28T15:08:33;61822.16;;;-138.97;100.00
7584;BME280;3833;41.764;26.204;2022-11-28T15:11:17;61822.16;;;-138.97;100.00
7584;BME280;3833;41.764;26.204;2022-11-28T15:14:04;61822.16;;;-138.97;100.00
7584;BME280;3833;41.764;26.204;2022-11-28T15:16:36;61822.16;;;-138.97;100.00
7584;BME280;3833;41.764;26.204;2022-11-28T15:19:10;61822.16;;;-138.97;100.00
7584;BME280;3833;41.764;26.204;2022-11-28T15:21:46;61822.16;;;-138.97;100.00
7584;BME280;3833;41.764;26.204;2022-11-28T15:24:18;61822.16;;;-138.97;100.00
7584;BME280;3833;41.764;26.204;2022-11-28T15:26:50;61822.16;;;-138.97;100.00
7584;BME280;3833;41.764;26.204;2022-11-28T15:29:19;61822.16;;;-138.97;100.00
7584;BME280;3833;41.764;26.204;2022-11-28T15:31:49;61822.16;;;-138.97;100.00
7584;BME280;3833;41.764;26.204;2022-11-28T15:34:24;61822.16;;;-138.97;100.00
7584;BME280;3833;41.764;26.204;2022-11-28T15:36:52;61822.16;;;-138.97;100.00
7584;BME280;3833;41.764;26.204;2022-11-28T15:39:25;61822.16;;;-138.97;100.00
7584;BME280;3833;41.764;26.204;2022-11-28T15:41:55;61822.16;;;-138.97;100.00
7584;BME280;3833;41.764;26.204;2022-11-28T15:44:23;61822.16;;;-138.97;100.00
7584;BME280;3833;41.764;26.204;2022-11-28T15:46:51;61822.16;;;-138.97;100.00
7584;BME280;3833;41.764;26.204;2022-11-28T15:49:26;61822.16;;;-138.97;100.00
7584;BME280;3833;41.764;26.204;2022-11-28T15:51:56;61822.16;;;-138.97;100.00
7584;BME280;3833;41.764;26.204;2022-11-28T15:54:31;61822.16;;;-138.97;100.00
7584;BME280;3833;41.764;26.204;2022-11-28T15:56:59;61822.16;;;-138.97;100.00
7584;BME280;3833;41.764;26.204;2022-11-28T15:59:28;61822.16;;;-138.97;100.00
7584;BME280;3833;41.764;26.204;2022-11-28T16:01:59;61822.16;;;-138.97;100.00
7584;BME280;3833;41.764;26.204;2022-11-28T16:04:28;61822.16;;;-138.97;100.00
7584;BME280;3833;41.764;26.204;2022-11-28T16:06:57;61822.16;;;-138.97;100.00
7584;BME280;3833;41.764;26.204;2022-11-28T16:09:28;61822.16;;;-138.97;100.00
7584;BME280;3833;41.764;26.204;2022-11-28T16:11:58;61822.16;;;-138.97;100.00
7584;BME280;3833;41.764;26.204;2022-11-28T16:14:28;61822.16;;;-138.97;100.00
7584;BME280;3833;41.764;26.204;2022-11-28T16:16:58;61822.16;;;-138.97;100.00
7584;BME280;3833;41.764;26.204;2022-11-28T16:19:28;61822.16;;;-138.97;100.00
7584;BME280;3833;41.764;26.204;2022-11-28T16:21:58;61822.16;;;-138.97;100.00
7584;BME280;3833;41.764;26.204;2022-11-28T16:24:27;61822.16;;;-138.97;100.00
7584;BME280;3833;41.764;26.204;2022-11-28T16:26:56;61822.16;;;-138.97;100.00
7584;BME280;3833;41.764;26.204;2022-11-28T16:29:27;61822.16;;;-138.97;100.00
7584;BME280;3833;41.764;26.204;2022-11-28T16:32:06;61822.16;;;-138.97;100.00
7584;BME280;3833;41.764;26.204;2022-11-28T16:34:44;61822.16;;;-138.97;100.00
7584;BME280;3833;41.764;26.204;2022-11-28T16:37:12;61822.16;;;-138.97;100.00
7584;BME280;3833;41.764;26.204;2022-11-28T16:39:45;61822.16;;;-138.97;100.00
7584;BME280;3833;41.764;26.204;2022-11-28T16:42:14;61822.16;;;-138.97;100.00
7584;BME280;3833;41.764;26.204;2022-11-28T16:44:42;61822.16;;;-138.97;100.00
7584;BME280;3833;41.764;26.204;2022-11-28T16:47:24;61822.16;;;-138.97;100.00
7584;BME280;3833;41.764;26.204;2022-11-28T16:50:16;61822.16;;;-138.97;100.00
7584;BME280;3833;41.764;26.204;2022-11-28T16:52:46;61822.16;;;-138.97;100.00
7584;BME280;3833;41.764;26.204;2022-11-28T16:55:41;61822.16;;;-138.97;100.00
7584;BME280;3833;41.764;26.204;2022-11-28T16:58:21;61822.16;;;-138.97;100.00
7584;BME280;3833;41.764;26.204;2022-11-28T17:00:58;61822.16;;;-138.97;100.00
7584;BME280;3833;41.764;26.204;2022-11-28T17:03:56;61822.16;;;-138.97;100.00
7584;BME280;3833;41.764;26.204;2022-11-28T17:06:26;61822.16;;;-138.97;100.00
7584;BME280;3833;41.764;26.204;2022-11-28T17:08:58;61822.16;;;-138.97;100.00
7584;BME280;3833;41.764;26.204;2022-11-28T17:11:28;61822.16;;;-138.97;100.00
7584;BME280;3833;41.764;26.204;2022-11-28T17:13:57;61822.16;;;-138.97;100.00
7584;BME280;3833;41.764;26.204;2022-11-28T17:16:25;61822.16;;;-138.97;100.00
7584;BME280;3833;41.764;26.204;2022-11-28T17:18:52;61822.16;;;-138.97;100.00
7584;BME280;3833;41.764;26.204;2022-11-28T17:21:26;61822.16;;;-138.97;100.00
7584;BME280;3833;41.764;26.204;2022-11-28T17:23:56;61822.16;;;-138.97;100.00
7584;BME280;3833;41.764;26.204;2022-11-28T17:26:23;61822.16;;;-138.97;100.00
7584;BME280;3833;41.764;26.204;2022-11-28T17:28:50;61822.16;;;-138.97;100.00
7584;BME280;3833;41.764;26.204;2022-11-28T17:31:21;61822.16;;;-138.97;100.00
7584;BME280;3833;41.764;26.204;2022-11-28T17:33:48;61822.16;;;-138.97;100.00
7584;BME280;3833;41.764;26.204;2022-11-28T17:36:15;61822.16;;;-138.97;100.00
7584;BME280;3833;41.764;26.204;2022-11-28T17:38:43;61822.16;;;-138.97;100.00
7584;BME280;3833;41.764;26.204;2022-11-28T17:41:11;61822.16;;;-138.97;100.00
7584;BME280;3833;41.764;26.204;2022-11-28T17:43:39;61822.16;;;-138.97;100.00
7584;BME280;3833;41.764;26.204;2022-11-28T17:46:06;61822.16;;;-138.97;100.00
7584;BME280;3833;41.764;26.204;2022-11-28T17:48:32;61822.16;;;-138.97;100.00
7584;BME280;3833;41.764;26.204;2022-11-28T17:50:59;61822.16;;;-138.97;100.00
7584;BME280;3833;41.764;26.204;2022-11-28T17:53:28;61822.16;;;-138.97;100.00
7584;BME280;3833;41.764;26.204;2022-11-28T17:55:57;61822.16;;;-138.97;100.00
7584;BME280;3833;41.764;26.204;2022-11-28T17:58:25;61822.16;;;-138.97;100.00
7584;BME280;3833;41.764;26.204;2022-11-28T18:00:52;61822.16;;;-138.97;100.00
7584;BME280;3833;41.764;26.204;2022-11-28T18:03:20;61822.16;;;-138.97;100.00
7584;BME280;3833;41.764;26.204;2022-11-28T18:05:48;61822.16;;;-138.97;100.00
7584;BME280;3833;41.764;26.204;2022-11-28T18:08:18;61822.16;;;-138.97;100.00
7584;BME280;3833;41.764;26.204;2022-11-28T18:10:45;61822.16;;;-138.97;100.00
7584;BME280;3833;41.764;26.204;2022-11-28T18:13:13;61822.16;;;-138.97;100.00
7584;BME280;3833;41.764;26.204;2022-11-28T18:15:44;61822.16;;;-138.97;100.00
7584;BME280;3833;41.764;26.204;2022-11-28T18:18:11;61822.16;;;-138.97;100.00
7584;BME280;3833;41.764;26.204;2022-11-28T18:20:38;61822.16;;;-138.97;100.00
7584;BME280;3833;41.764;26.204;2022-11-28T18:23:05;61822.16;;;-138.97;100.00
7584;BME280;3833;41.764;26.204;2022-11-28T18:25:31;61822.16;;;-138.97;100.00
7584;BME280;3833;41.764;26.204;2022-11-28T18:27:58;61822.16;;;-138.97;100.00
7584;BME280;3833;41.764;26.204;2022-11-28T18:30:26;61822.16;;;-138.97;100.00
7584;BME280;3833;41.764;26.204;2022-11-28T18:32:53;61822.16;;;-138.97;100.00
7584;BME280;3833;41.764;26.204;2022-11-28T18:35:20;61822.16;;;-138.97;100.00
7584;BME280;3833;41.764;26.204;2022-11-28T18:37:47;61822.16;;;-138.97;100.00
7584;BME280;3833;41.764;26.204;2022-11-28T18:40:14;61822.16;;;-138.97;100.00
7584;BME280;3833;41.764;26.204;2022-11-28T18:42:41;61822.16;;;-138.97;100.00
7584;BME280;3833;41.764;26.204;2022-11-28T18:45:10;61822.16;;;-138.97;100.00
7584;BME280;3833;41.764;26.204;2022-11-28T18:47:39;61822.16;;;-138.97;100.00
7584;BME280;3833;41.764;26.204;2022-11-28T18:50:07;61822.16;;;-138.97;100.00
7584;BME280;3833;41.764;26.204;2022-11-28T18:52:34;61822.16;;;-138.97;100.00
7584;BME280;3833;41.764;26.204;2022-11-28T18:55:04;61822.16;;;-138.97;100.00
7584;BME280;3833;41.764;26.204;2022-11-28T18:57:31;61822.16;;;-138.97;100.00
7584;BME280;3833;41.764;26.204;2022-11-28T19:00:20;61822.16;;;-138.97;100.00
7584;BME280;3833;41.764;26.204;2022-11-28T19:02:49;61822.16;;;-138.97;100.00
7584;BME280;3833;41.764;26.204;2022-11-28T19:05:16;61822.16;;;-138.97;100.00
7584;BME280;3833;41.764;26.204;2022-11-28T19:07:43;61822.16;;;-138.97;100.00
7584;BME280;3833;41.764;26.204;2022-11-28T19:10:10;61822.16;;;-138.97;100.00
7584;BME280;3833;41.764;26.204;2022-11-28T19:12:37;61822.16;;;-138.97;100.00
7584;BME280;3833;41.764;26.204;2022-11-28T19:15:05;61822.16;;;-138.97;100.00
7584;BME280;3833;41.764;26.204;2022-11-28T19:17:33;61822.16;;;-138.97;100.00
7584;BME280;3833;41.764;26.204;2022-11-28T19:20:01;61822.16;;;-138.97;100.00
7584;BME280;3833;41.764;26.204;2022-11-28T19:22:33;61822.16;;;-138.97;100.00
7584;BME280;3833;41.764;26.204;2022-11-28T19:25:00;61822.16;;;-138.97;100.00
7584;BME280;3833;41.764;26.204;2022-11-28T19:27:29;61822.16;;;-138.97;100.00
7584;BME280;3833;41.764;26.204;2022-11-28T19:29:56;61822.16;;;-138.97;100.00
7584;BME280;3833;41.764;26.204;2022-11-28T19:32:23;61822.16;;;-138.97;100.00
7584;BME280;3833;41.764;26.204;2022-11-28T19:34:51;61822.16;;;-138.97;100.00
7584;BME280;3833;41.764;26.204;2022-11-28T19:37:21;61822.16;;;-138.97;100.00
7584;BME280;3833;41.764;26.204;2022-11-28T19:39:48;61822.16;;;-138.97;100.00
7584;BME280;3833;41.764;26.204;2022-11-28T19:42:15;61822.16;;;-138.97;100.00
7584;BME280;3833;41.764;26.204;2022-11-28T19:44:42;61822.16;;;-138.97;100.00
7584;BME280;3833;41.764;26.204;2022-11-28T19:47:09;61822.16;;;-138.97;100.00
7584;BME280;3833;41.764;26.204;2022-11-28T19:49:36;61822.16;;;-138.97;100.00
7584;BME280;3833;41.764;26.204;2022-11-28T19:52:03;61822.16;;;-138.97;100.00
7584;BME280;3833;41.764;26.204;2022-11-28T19:54:32;61822.16;;;-138.97;100.00
7584;BME280;3833;41.764;26.204;2022-11-28T19:56:59;61822.16;;;-138.97;100.00
7584;BME280;3833;41.764;26.204;2022-11-28T19:59:26;61822.16;;;-138.97;100.00
7584;BME280;3833;41.764;26.204;2022-11-28T20:01:54;61822.16;;;-138.97;100.00
7584;BME280;3833;41.764;26.204;2022-11-28T20:04:21;61822.16;;;-138.97;100.00
7584;BME280;3833;41.764;26.204;2022-11-28T20:06:48;61822.16;;;-138.97;100.00
7584;BME280;3833;41.764;26.204;2022-11-28T20:09:15;61822.16;;;-138.97;100.00
7584;BME280;3833;41.764;26.204;2022-11-28T20:11:43;61822.16;;;-138.97;100.00
7584;BME280;3833;41.764;26.204;2022-11-28T20:14:12;61822.16;;;-138.97;100.00
7584;BME280;3833;41.764;26.204;2022-11-28T20:16:39;61822.16;;;-138.97;100.00
7584;BME280;3833;41.764;26.204;2022-11-28T20:19:06;61822.16;;;-138.97;100.00
7584;BME280;3833;41.764;26.204;2022-11-28T20:21:34;61822.16;;;-138.97;100.00
7584;BME280;3833;41.764;26.204;2022-11-28T20:24:03;61822.16;;;-138.97;100.00
7584;BME280;3833;41.764;26.204;2022-11-28T20:26:33;61822.16;;;-138.97;100.00
7584;BME280;3833;41.764;26.204;2022-11-28T20:29:04;61822.16;;;-138.97;100.00
7584;BME280;3833;41.764;26.204;2022-11-28T20:31:33;61822.16;;;-138.97;100.00
7584;BME280;3833;41.764;26.204;2022-11-28T20:34:01;61822.16;;;-138.97;100.00
7584;BME280;3833;41.764;26.204;2022-11-28T20:36:29;61822.16;;;-138.97;100.00
7584;BME280;3833;41.764;26.204;2022-11-28T20:38:57;61822.16;;;-138.97;100.00
7584;BME280;3833;41.764;26.204;2022-11-28T20:41:28;61822.16;;;-138.97;100.00
7584;BME280;3833;41.764;26.204;2022-11-28T20:43:57;61822.16;;;-138.97;100.00
7584;BME280;3833;41.764;26.204;2022-11-28T20:46:27;61822.16;;;-138.97;100.00
7584;BME280;3833;41.764;26.204;2022-11-28T20:48:56;61822.16;;;-138.97;100.00
7584;BME280;3833;41.764;26.204;2022-11-28T20:51:25;61822.16;;;-138.97;100.00
7584;BME280;3833;41.764;26.204;2022-11-28T20:53:53;61822.16;;;-138.97;100.00
7584;BME280;3833;41.764;26.204;2022-11-28T20:56:21;61822.16;;;-138.97;100.00
7584;BME280;3833;41.764;26.204;2022-11-28T20:58:49;61822.16;;;-138.97;100.00
7584;BME280;3833;41.764;26.204;2022-11-28T21:01:18;61822.16;;;-138.97;100.00
7584;BME280;3833;41.764;26.204;2022-11-28T21:03:46;61822.16;;;-138.97;100.00
7584;BME280;3833;41.764;26.204;2022-11-28T21:06:13;61822.16;;;-138.97;100.00
7584;BME280;3833;41.764;26.204;2022-11-28T21:08:41;61822.16;;;-138.97;100.00
7584;BME280;3833;41.764;26.204;2022-11-28T21:11:10;61822.16;;;-138.97;100.00
7584;BME280;3833;41.764;26.204;2022-11-28T21:13:40;61822.16;;;-138.97;100.00
7584;BME280;3833;41.764;26.204;2022-11-28T21:16:09;61822.16;;;-138.97;100.00
7584;BME280;3833;41.764;26.204;2022-11-28T21:18:37;61822.16;;;-138.97;100.00
7584;BME280;3833;41.764;26.204;2022-11-28T21:21:08;61822.16;;;-138.97;100.00
7584;BME280;3833;41.764;26.204;2022-11-28T21:23:35;61822.16;;;-138.97;100.00
7584;BME280;3833;41.764;26.204;2022-11-28T21:26:03;61822.16;;;-138.97;100.00
7584;BME280;3833;41.764;26.204;2022-11-28T21:28:31;61822.16;;;-138.97;100.00
7584;BME280;3833;41.764;26.204;2022-11-28T21:30:57;61822.16;;;-138.97;100.00
7584;BME280;3833;41.764;26.204;2022-11-28T21:33:24;61822.16;;;-138.97;100.00
7584;BME280;3833;41.764;26.204;2022-11-28T21:35:51;61822.16;;;-138.97;100.00
7584;BME280;3833;41.764;26.204;2022-11-28T21:38:19;61822.16;;;-138.97;100.00
7584;BME280;3833;41.764;26.204;2022-11-28T21:40:50;61822.16;;;-138.97;100.00
7584;BME280;3833;41.764;26.204;2022-11-28T21:43:18;61822.16;;;-138.97;100.00
7584;BME280;3833;41.764;26.204;2022-11-28T21:45:45;61822.16;;;-138.97;100.00
7584;BME280;3833;41.764;26.204;2022-11-28T21:48:12;61822.16;;;-138.97;100.00
7584;BME280;3833;41.764;26.204;2022-11-28T21:50:44;61822.16;;;-138.97;100.00
7584;BME280;3833;41.764;26.204;2022-11-28T21:53:11;61822.16;;;-138.97;100.00
7584;BME280;3833;41.764;26.204;2022-11-28T21:55:39;61822.16;;;-138.97;100.00
7584;BME280;3833;41.764;26.204;2022-11-28T21:58:06;61822.16;;;-138.97;100.00
7584;BME280;3833;41.764;26.204;2022-11-28T22:00:33;61822.16;;;-138.97;100.00
7584;BME280;3833;41.764;26.204;2022-11-28T22:03:00;61822.16;;;-138.97;100.00
7584;BME280;3833;41.764;26.204;2022-11-28T22:05:27;61822.16;;;-138.97;100.00
7584;BME280;3833;41.764;26.204;2022-11-28T22:07:54;61822.16;;;-138.97;100.00
7584;BME280;3833;41.764;26.204;2022-11-28T22:10:21;61822.16;;;-138.97;100.00
7584;BME280;3833;41.764;26.204;2022-11-28T22:12:49;61822.16;;;-138.97;100.00
7584;BME280;3833;41.764;26.204;2022-11-28T22:15:16;61822.16;;;-138.97;100.00
7584;BME280;3833;41.764;26.204;2022-11-28T22:17:42;61822.16;;;-138.97;100.00
7584;BME280;3833;41.764;26.204;2022-11-28T22:20:10;61822.16;;;-138.97;100.00
7584;BME280;3833;41.764;26.204;2022-11-28T22:22:40;61822.16;;;-138.97;100.00
7584;BME280;3833;41.764;26.204;2022-11-28T22:25:07;61822.16;;;-138.97;100.00
7584;BME280;3833;41.764;26.204;2022-11-28T22:27:33;61822.16;;;-138.97;100.00
7584;BME280;3833;41.764;26.204;2022-11-28T22:30:05;61822.16;;;-138.97;100.00
7584;BME280;3833;41.764;26.204;2022-11-28T22:32:32;61822.16;;;-138.97;100.00
7584;BME280;3833;41.764;26.204;2022-11-28T22:34:59;61822.16;;;-138.97;100.00
7584;BME280;3833;41.764;26.204;2022-11-28T22:37:27;61822.16;;;-138.97;100.00
7584;BME280;3833;41.764;26.204;2022-11-28T22:39:53;61822.16;;;-138.97;100.00
7584;BME280;3833;41.764;26.204;2022-11-28T22:42:20;61822.16;;;-138.97;100.00
7584;BME280;3833;41.764;26.204;2022-11-28T22:44:47;61822.16;;;-138.97;100.00
7584;BME280;3833;41.764;26.204;2022-11-28T22:47:17;61822.16;;;-138.97;100.00
7584;BME280;3833;41.764;26.204;2022-11-28T22:49:47;61822.16;;;-138.97;100.00
7584;BME280;3833;41.764;26.204;2022-11-28T22:52:13;61822.16;;;-138.97;100.00
7584;BME280;3833;41.764;26.204;2022-11-28T22:54:41;61822.16;;;-138.97;100.00
7584;BME280;3833;41.764;26.204;2022-11-28T22:57:08;61822.16;;;-138.97;100.00
7584;BME280;3833;41.764;26.204;2022-11-28T22:59:34;61822.16;;;-138.97;100.00
7584;BME280;3833;41.764;26.204;2022-11-28T23:02:03;61822.16;;;-138.97;100.00
7584;BME280;3833;41.764;26.204;2022-11-28T23:04:31;61822.16;;;-138.97;100.00
7584;BME280;3833;41.764;26.204;2022-11-28T23:06:58;61822.16;;;-138.97;100.00
7584;BME280;3833;41.764;26.204;2022-11-28T23:09:24;61822.16;;;-138.97;100.00
7584;BME280;3833;41.764;26.204;2022-11-28T23:11:51;61822.16;;;-138.97;100.00
7584;BME280;3833;41.764;26.204;2022-11-28T23:14:18;61822.16;;;-138.97;100.00
7584;BME280;3833;41.764;26.204;2022-11-28T23:16:45;61822.16;;;-138.97;100.00
7584;BME280;3833;41.764;26.204;2022-11-28T23:19:13;61822.16;;;-138.97;100.00
7584;BME280;3833;41.764;26.204;2022-11-28T23:21:43;61822.16;;;-138.97;100.00
7584;BME280;3833;41.764;26.204;2022-11-28T23:24:12;61822.16;;;-138.97;100.00
7584;BME280;3833;41.764;26.204;2022-11-28T23:26:39;61822.16;;;-138.97;100.00
7584;BME280;3833;41.764;26.204;2022-11-28T23:29:06;61822.16;;;-138.97;100.00
7584;BME280;3833;41.764;26.204;2022-11-28T23:31:37;61822.16;;;-138.97;100.00
7584;BME280;3833;41.764;26.204;2022-11-28T23:34:05;61822.16;;;-138.97;100.00
7584;BME280;3833;41.764;26.204;2022-11-28T23:36:33;61822.16;;;-138.97;100.00
7584;BME280;3833;41.764;26.204;2022-11-28T23:39:03;61822.16;;;-138.97;100.00
7584;BME280;3833;41.764;26.204;2022-11-28T23:41:30;61822.16;;;-138.97;100.00
7584;BME280;3833;41.764;26.204;2022-11-28T23:43:57;61822.16;;;-138.97;100.00
7584;BME280;3833;41.764;26.204;2022-11-28T23:46:25;61822.16;;;-138.97;100.00
7584;BME280;3833;41.764;26.204;2022-11-28T23:48:53;61822.16;;;-138.97;100.00
7584;BME280;3833;41.764;26.204;2022-11-28T23:51:22;61822.16;;;-138.97;100.00
7584;BME280;3833;41.764;26.204;2022-11-28T23:53:49;61822.16;;;-138.97;100.00
7584;BME280;3833;41.764;26.204;2022-11-28T23:56:22;61822.16;;;-138.97;100.00
7584;BME280;3833;41.764;26.204;2022-11-28T23:58:50;61822.16;;;-138.97;100.00
